Time;durP1;ratioP1;P1;durP2;ratioP2;P2;SDS_P1;SDS_P2;PMS_P1;PMS_P2;Temp;Humidity;BMP_temperature;BMP_pressure;BME280_temperature;BME280_humidity;BME280_pressure;Samples;Min_cycle;Max_cycle;Signal;HPM_P1;HPM_P2
2020/12/22 00:00:28;;;;;;;19.20;11.30;;;;;;;-2.61;78.27;102202.66;1787756;78;21099;-48
2020/12/22 00:02:56;;;;;;;19.27;11.43;;;;;;;-2.60;78.22;102207.86;1789019;78;21141;-48
2020/12/22 00:05:24;;;;;;;21.25;11.93;;;;;;;-2.65;77.92;102203.09;1765254;79;21176;-48
2020/12/22 00:07:51;;;;;;;24.72;13.53;;;;;;;-2.64;78.16;102204.83;1788105;78;21169;-49
2020/12/22 00:10:19;;;;;;;26.57;14.15;;;;;;;-2.60;78.22;102206.57;1785124;78;20999;-49
2020/12/22 00:12:47;;;;;;;21.65;12.50;;;;;;;-2.57;77.86;102210.88;1785947;78;21133;-47
2020/12/22 00:15:15;;;;;;;23.83;13.00;;;;;;;-2.58;77.76;102210.03;1768564;79;21605;-47
2020/12/22 00:17:44;;;;;;;22.52;11.97;;;;;;;-2.61;77.55;102198.36;1783318;78;22831;-47
2020/12/22 00:20:12;;;;;;;25.95;14.15;;;;;;;-2.68;77.57;102200.08;1780007;78;21003;-47
2020/12/22 00:22:40;;;;;;;22.40;11.55;;;;;;;-2.68;77.64;102200.50;1787275;78;21559;-48
2020/12/22 00:25:08;;;;;;;22.22;13.22;;;;;;;-2.70;77.54;102196.63;1794417;77;21510;-47
2020/12/22 00:27:38;;;;;;;33.80;17.50;;;;;;;-2.70;77.50;102197.03;1809644;78;22120;-48
2020/12/22 00:30:06;;;;;;;29.98;14.85;;;;;;;-2.74;77.61;102194.88;1809736;78;21589;-48
2020/12/22 00:32:37;;;;;;;29.85;15.03;;;;;;;-2.76;77.96;102195.72;1809791;78;20994;-48
2020/12/22 00:35:05;;;;;;;28.73;14.20;;;;;;;-2.77;78.11;102187.52;1808574;78;21152;-48
2020/12/22 00:37:32;;;;;;;31.35;15.32;;;;;;;-2.76;78.08;102185.36;1806807;78;20935;-48
2020/12/22 00:40:00;;;;;;;30.23;15.85;;;;;;;-2.79;78.01;102180.16;1810231;78;21131;-48
2020/12/22 00:42:30;;;;;;;34.00;16.82;;;;;;;-2.79;77.96;102176.27;1809531;78;21165;-48
2020/12/22 00:44:59;;;;;;;33.55;15.58;;;;;;;-2.82;78.16;102174.11;1809950;77;21592;-48
2020/12/22 00:47:26;;;;;;;35.55;17.77;;;;;;;-2.82;78.44;102176.70;1808008;78;20956;-48
2020/12/22 00:49:56;;;;;;;35.03;17.62;;;;;;;-2.78;78.33;102176.30;1785122;78;21097;-48
2020/12/22 00:52:23;;;;;;;45.25;21.93;;;;;;;-2.78;78.07;102176.30;1780284;78;21912;-48
2020/12/22 00:54:51;;;;;;;36.03;18.32;;;;;;;-2.75;78.18;102171.53;1762630;80;22156;-48
2020/12/22 00:57:19;;;;;;;37.25;19.70;;;;;;;-2.70;78.26;102176.30;1785507;78;21746;-48
2020/12/22 01:00:00;;;;;;;37.73;18.65;;;;;;;-2.66;77.73;102165.08;1796200;77;28412;-48
2020/12/22 01:02:28;;;;;;;35.48;17.15;;;;;;;-2.73;77.85;102168.52;1767543;80;22494;-48
2020/12/22 01:04:56;;;;;;;33.25;16.77;;;;;;;-2.74;77.96;102170.67;1755992;80;21397;-48
2020/12/22 01:07:23;;;;;;;31.95;15.78;;;;;;;-2.71;78.23;102171.56;1725348;80;21651;-48
2020/12/22 01:09:52;;;;;;;31.82;16.93;;;;;;;-2.67;77.89;102175.02;1749022;80;22045;-49
2020/12/22 01:12:22;;;;;;;34.43;16.42;;;;;;;-2.70;77.76;102174.59;1758544;80;20999;-48
2020/12/22 01:14:50;;;;;;;35.95;15.38;;;;;;;-2.70;77.88;102178.89;1743200;80;22113;-48
2020/12/22 01:17:18;;;;;;;46.85;19.27;;;;;;;-2.69;77.96;102177.62;1749097;80;21359;-48
2020/12/22 01:19:46;;;;;;;29.42;15.35;;;;;;;-2.64;78.03;102180.20;1758508;80;21153;-48
2020/12/22 01:22:14;;;;;;;31.85;16.55;;;;;;;-2.60;77.84;102175.87;1749223;80;21633;-48
2020/12/22 01:24:44;;;;;;;30.57;15.98;;;;;;;-2.58;77.72;102177.62;1759126;80;21121;-48
2020/12/22 01:27:11;;;;;;;36.23;17.37;;;;;;;-2.59;77.62;102168.11;1757455;80;21152;-48
2020/12/22 01:29:40;;;;;;;34.35;16.57;;;;;;;-2.63;77.45;102168.09;1753963;80;21194;-48
2020/12/22 01:32:07;;;;;;;37.35;19.10;;;;;;;-2.65;77.71;102161.63;1750080;80;21121;-48
2020/12/22 01:34:36;;;;;;;35.45;18.12;;;;;;;-2.66;77.54;102166.38;1751486;80;22044;-48
2020/12/22 01:37:12;;;;;;;37.73;20.27;;;;;;;-2.68;77.70;102171.57;1751716;80;21165;-47
2020/12/22 01:39:40;;;;;;;38.85;18.00;;;;;;;-2.68;77.90;102161.61;1744845;80;21113;-47
2020/12/22 01:42:09;;;;;;;38.02;18.12;;;;;;;-2.67;77.83;102162.05;1752576;80;21490;-48
2020/12/22 01:44:37;;;;;;;33.63;17.10;;;;;;;-2.69;77.46;102160.77;1749113;80;21613;-48
2020/12/22 01:47:04;;;;;;;36.70;19.98;;;;;;;-2.72;77.55;102159.88;1754493;80;20987;-48
2020/12/22 01:49:33;;;;;;;49.63;23.85;;;;;;;-2.72;77.83;102155.99;1742753;80;21011;-48
2020/12/22 01:52:01;;;;;;;40.90;19.92;;;;;;;-2.72;77.97;102156.88;1677724;82;20993;-47
2020/12/22 01:54:29;;;;;;;44.85;21.97;;;;;;;-2.73;77.68;102154.26;1682401;81;22901;-48
2020/12/22 01:56:56;;;;;;;40.83;19.40;;;;;;;-2.73;78.19;102146.48;1701368;82;21179;-48
2020/12/22 01:59:24;;;;;;;44.83;21.62;;;;;;;-2.69;78.22;102150.81;1701806;81;21151;-49
2020/12/22 02:01:53;;;;;;;42.13;19.37;;;;;;;-2.67;78.20;102147.38;1727142;81;21171;-48
2020/12/22 02:04:21;;;;;;;43.90;19.87;;;;;;;-2.63;78.06;102142.16;1732202;81;21437;-48
2020/12/22 02:06:49;;;;;;;37.45;19.17;;;;;;;-2.68;77.52;102144.77;1711777;81;21205;-48
2020/12/22 02:09:17;;;;;;;41.23;20.23;;;;;;;-2.74;77.75;102142.16;1741543;81;21009;-47
2020/12/22 02:11:45;;;;;;;44.18;20.68;;;;;;;-2.79;77.80;102142.17;1699295;81;21155;-48
2020/12/22 02:14:12;;;;;;;49.38;22.42;;;;;;;-2.83;77.95;102137.39;1727628;81;22053;-48
2020/12/22 02:16:40;;;;;;;53.23;21.82;;;;;;;-2.85;77.96;102135.23;1734010;81;21159;-47
2020/12/22 02:19:09;;;;;;;47.23;22.20;;;;;;;-2.84;78.04;102133.52;1720148;81;21180;-48
2020/12/22 02:21:37;;;;;;;48.17;22.75;;;;;;;-2.83;77.88;102134.80;1703823;82;21013;-48
2020/12/22 02:24:04;;;;;;;39.38;20.55;;;;;;;-2.80;77.90;102139.14;1707204;82;22136;-48
2020/12/22 02:26:33;;;;;;;43.38;21.30;;;;;;;-2.75;78.05;102130.06;1736760;81;22198;-48
2020/12/22 02:29:01;;;;;;;48.87;24.07;;;;;;;-2.73;77.89;102134.81;1731094;81;21149;-48
2020/12/22 02:31:29;;;;;;;49.03;23.00;;;;;;;-2.72;77.96;102139.14;1735569;81;21339;-48
2020/12/22 02:33:57;;;;;;;45.50;22.32;;;;;;;-2.72;77.93;102136.55;1716707;81;22093;-48
2020/12/22 02:36:24;;;;;;;54.58;25.08;;;;;;;-2.72;77.97;102132.25;1717692;81;21185;-48
2020/12/22 02:38:53;;;;;;;41.98;22.27;;;;;;;-2.69;78.17;102130.08;1693440;83;21198;-48
2020/12/22 02:41:20;;;;;;;51.15;22.90;;;;;;;-2.65;78.21;102133.55;1736589;82;21149;-48
2020/12/22 02:43:48;;;;;;;49.00;23.77;;;;;;;-2.62;78.21;102137.00;1733141;81;21272;-48
2020/12/22 02:46:17;;;;;;;50.12;23.98;;;;;;;-2.62;78.17;102142.19;1736529;81;21013;-49
2020/12/22 02:48:45;;;;;;;48.73;24.57;;;;;;;-2.59;78.31;102143.48;1718426;81;21009;-49
2020/12/22 02:51:12;;;;;;;61.55;25.65;;;;;;;-2.54;78.12;102139.17;1707862;83;21164;-47
2020/12/22 02:53:40;;;;;;;55.48;25.20;;;;;;;-2.49;77.99;102145.64;1705852;81;22135;-47
2020/12/22 02:56:09;;;;;;;50.17;24.10;;;;;;;-2.46;77.60;102140.91;1695628;82;21316;-48
2020/12/22 02:58:37;;;;;;;53.73;24.05;;;;;;;-2.47;77.37;102140.47;1687218;82;22140;-47
2020/12/22 03:01:04;;;;;;;46.15;22.05;;;;;;;-2.53;77.30;102139.60;1719418;81;21015;-48
2020/12/22 03:03:32;;;;;;;48.38;21.40;;;;;;;-2.55;77.42;102138.73;1695222;82;22168;-48
2020/12/22 03:05:59;;;;;;;53.20;26.37;;;;;;;-2.59;77.39;102129.23;1697585;83;21656;-48
2020/12/22 03:08:27;;;;;;;54.27;25.62;;;;;;;-2.60;77.88;102135.27;1742235;81;21478;-48
2020/12/22 03:10:55;;;;;;;51.18;24.77;;;;;;;-2.58;77.94;102130.95;1711650;82;21172;-48
2020/12/22 03:13:22;;;;;;;57.70;25.82;;;;;;;-2.54;77.77;102130.09;1741836;81;21015;-48
2020/12/22 03:15:50;;;;;;;50.85;23.75;;;;;;;-2.54;77.73;102124.03;1743751;81;21946;-48
2020/12/22 03:18:18;;;;;;;55.43;24.07;;;;;;;-2.55;77.40;102123.18;1739936;82;21156;-47
2020/12/22 03:20:46;;;;;;;52.62;24.90;;;;;;;-2.59;77.45;102114.97;1721877;82;22015;-48
2020/12/22 03:23:14;;;;;;;52.58;22.50;;;;;;;-2.61;77.62;102119.28;1698420;81;21668;-48
2020/12/22 03:25:42;;;;;;;53.78;22.42;;;;;;;-2.61;77.55;102119.28;1699788;82;21009;-48
2020/12/22 03:28:10;;;;;;;53.35;25.60;;;;;;;-2.64;77.59;102116.69;1716994;81;21138;-48
2020/12/22 03:30:38;;;;;;;46.75;22.32;;;;;;;-2.64;77.49;102119.70;1701822;83;21004;-49
2020/12/22 03:33:07;;;;;;;47.55;23.30;;;;;;;-2.69;77.63;102117.99;1682999;83;22156;-49
2020/12/22 03:35:35;;;;;;;47.25;21.73;;;;;;;-2.74;77.86;102115.83;1709698;83;21001;-49
2020/12/22 03:38:03;;;;;;;43.90;21.77;;;;;;;-2.76;77.97;102127.03;1713828;81;21030;-49
2020/12/22 03:40:31;;;;;;;47.13;20.92;;;;;;;-2.79;77.90;102121.44;1706696;82;22078;-49
2020/12/22 03:42:58;;;;;;;50.40;21.48;;;;;;;-2.76;78.16;102125.33;1717321;81;21019;-49
2020/12/22 03:45:26;;;;;;;48.78;22.45;;;;;;;-2.74;78.00;102119.72;1703357;82;21474;-49
2020/12/22 03:47:53;;;;;;;44.42;22.67;;;;;;;-2.72;77.93;102124.47;1742054;81;21721;-49
2020/12/22 03:50:23;;;;;;;47.35;20.00;;;;;;;-2.72;77.97;102123.59;1739748;80;21689;-47
2020/12/22 03:52:51;;;;;;;51.70;22.05;;;;;;;-2.71;77.98;102117.55;1712440;82;21958;-48
2020/12/22 03:55:19;;;;;;;50.60;23.25;;;;;;;-2.70;77.76;102116.27;1701187;82;20958;-48
2020/12/22 03:57:47;;;;;;;48.90;22.30;;;;;;;-2.70;77.63;102117.97;1707004;81;21335;-48
2020/12/22 04:00:15;;;;;;;44.00;21.87;;;;;;;-2.69;77.76;102118.41;1721458;81;21182;-48
2020/12/22 04:02:46;;;;;;;45.80;20.12;;;;;;;-2.68;78.04;102120.14;1688957;82;20996;-48
2020/12/22 04:05:14;;;;;;;58.02;23.02;;;;;;;-2.63;77.92;102110.64;1710353;82;21173;-48
2020/12/22 04:07:42;;;;;;;43.15;19.30;;;;;;;-2.62;77.71;102112.78;1693022;82;21164;-48
2020/12/22 04:10:09;;;;;;;43.92;20.55;;;;;;;-2.67;77.28;102114.09;1716998;81;21475;-48
2020/12/22 04:12:38;;;;;;;46.58;19.85;;;;;;;-2.78;77.55;102116.69;1705758;82;21006;-48
2020/12/22 04:15:07;;;;;;;38.20;19.95;;;;;;;-2.86;78.14;102114.06;1708329;83;20994;-48
2020/12/22 04:17:35;;;;;;;41.90;20.00;;;;;;;-2.91;77.85;102110.59;1714932;81;21156;-48
2020/12/22 04:20:02;;;;;;;48.70;19.92;;;;;;;-2.96;77.88;102116.20;1705223;83;21159;-48
2020/12/22 04:22:31;;;;;;;43.42;20.08;;;;;;;-3.00;77.80;102119.23;1718408;81;21667;-48
2020/12/22 04:24:59;;;;;;;43.50;21.10;;;;;;;-2.99;78.09;102118.78;1702434;83;20967;-48
2020/12/22 04:27:27;;;;;;;45.28;20.80;;;;;;;-2.94;78.29;102111.88;1730451;81;21763;-47
2020/12/22 04:29:55;;;;;;;45.65;20.60;;;;;;;-2.88;78.34;102109.75;1731065;82;20993;-48
2020/12/22 04:32:26;;;;;;;44.20;20.80;;;;;;;-2.88;78.02;102110.60;1742464;81;20981;-48
2020/12/22 04:34:54;;;;;;;45.23;19.62;;;;;;;-2.90;78.04;102111.03;1729621;82;21189;-48
2020/12/22 04:37:22;;;;;;;44.77;19.73;;;;;;;-2.89;78.16;102106.28;1729601;81;21153;-48
2020/12/22 04:39:49;;;;;;;39.50;19.37;;;;;;;-2.91;77.99;102098.94;1729622;82;21033;-48
2020/12/22 04:42:20;;;;;;;39.53;19.85;;;;;;;-2.87;78.15;102099.38;1727628;81;21139;-48
2020/12/22 04:44:49;;;;;;;38.35;19.07;;;;;;;-2.83;78.25;102105.45;1732995;82;21115;-48
2020/12/22 04:47:17;;;;;;;48.45;20.92;;;;;;;-2.82;78.09;102101.98;1699197;80;22992;-48
2020/12/22 04:49:48;;;;;;;41.88;20.02;;;;;;;-2.79;78.01;102100.70;1740572;80;21011;-48
2020/12/22 04:52:17;;;;;;;45.92;21.93;;;;;;;-2.79;77.75;102097.23;1740602;81;21151;-48
2020/12/22 04:54:45;;;;;;;47.75;22.02;;;;;;;-2.79;77.95;102099.81;1703689;80;21216;-48
2020/12/22 04:57:16;;;;;;;54.70;23.60;;;;;;;-2.80;77.93;102095.50;1733660;80;21170;-47
2020/12/22 04:59:44;;;;;;;48.00;23.38;;;;;;;-2.82;77.99;102095.06;1719911;81;21204;-48
2020/12/22 05:02:14;;;;;;;49.93;24.40;;;;;;;-2.83;78.23;102096.38;1695063;82;21166;-47
2020/12/22 05:04:42;;;;;;;53.42;23.07;;;;;;;-2.84;78.36;102089.46;1715418;81;21026;-48
2020/12/22 05:07:10;;;;;;;54.75;22.37;;;;;;;-2.82;78.47;102092.92;1753399;81;21110;-48
2020/12/22 05:09:37;;;;;;;59.48;25.90;;;;;;;-2.79;78.71;102092.92;1735281;81;21134;-48
2020/12/22 05:12:07;;;;;;;55.00;25.37;;;;;;;-2.75;78.74;102089.89;1683683;81;22498;-48
2020/12/22 05:14:36;;;;;;;55.08;26.10;;;;;;;-2.68;78.77;102087.73;1699020;81;21166;-48
2020/12/22 05:17:04;;;;;;;51.53;23.90;;;;;;;-2.60;78.75;102087.73;1730033;81;21029;-48
2020/12/22 05:19:35;;;;;;;60.03;24.82;;;;;;;-2.55;78.62;102087.30;1748503;81;21153;-48
2020/12/22 05:22:03;;;;;;;39.00;20.62;;;;;;;-2.53;78.42;102082.98;1748187;81;21125;-48
2020/12/22 05:24:31;;;;;;;58.73;27.93;;;;;;;-2.55;78.23;102089.47;1742725;81;22066;-48
2020/12/22 05:26:59;;;;;;;55.75;27.15;;;;;;;-2.56;78.53;102085.56;1700149;81;21133;-48
2020/12/22 05:29:28;;;;;;;58.78;27.48;;;;;;;-2.54;78.57;102090.32;1709434;81;21121;-48
2020/12/22 05:31:56;;;;;;;53.10;26.17;;;;;;;-2.54;78.47;102092.50;1747802;81;21569;-48
2020/12/22 05:34:27;;;;;;;53.02;24.18;;;;;;;-2.55;78.67;102088.17;1740402;81;21096;-48
2020/12/22 05:36:55;;;;;;;56.50;25.60;;;;;;;-2.52;78.73;102095.95;1736890;80;22561;-49
2020/12/22 05:39:23;;;;;;;57.55;25.82;;;;;;;-2.48;78.68;102090.77;1692028;83;21173;-47
2020/12/22 05:41:53;;;;;;;62.20;25.72;;;;;;;-2.45;78.71;102089.03;1731715;80;21524;-48
2020/12/22 05:44:26;;;;;;;48.73;23.47;;;;;;;-2.40;78.57;102085.16;1736198;80;21111;-48
2020/12/22 05:46:54;;;;;;;46.90;22.40;;;;;;;-2.35;78.62;102087.31;1741012;80;21975;-48
2020/12/22 05:49:21;;;;;;;41.83;20.17;;;;;;;-2.31;78.39;102085.15;1712981;81;21996;-48
2020/12/22 05:51:49;;;;;;;41.23;20.23;;;;;;;-2.29;78.21;102079.53;1712544;81;21187;-48
2020/12/22 05:54:18;;;;;;;43.02;20.82;;;;;;;-2.28;78.04;102080.38;1712810;81;22192;-48
2020/12/22 05:56:45;;;;;;;42.17;21.15;;;;;;;-2.29;77.92;102077.34;1712640;81;21457;-48
2020/12/22 05:59:20;;;;;;;41.48;19.90;;;;;;;-2.30;77.85;102075.20;1728585;81;21167;-48
2020/12/22 06:01:48;;;;;;;38.42;18.67;;;;;;;-2.29;77.86;102078.23;1730801;80;21500;-48
2020/12/22 06:04:18;;;;;;;40.50;18.37;;;;;;;-2.31;77.84;102078.66;1716291;81;21165;-48
2020/12/22 06:06:47;;;;;;;35.90;18.52;;;;;;;-2.33;77.71;102072.61;1724451;81;21112;-48
2020/12/22 06:09:15;;;;;;;30.95;16.67;;;;;;;-2.38;77.94;102071.75;1728474;81;21134;-48
2020/12/22 06:11:46;;;;;;;31.62;15.83;;;;;;;-2.42;78.10;102079.10;1730322;81;21154;-48
2020/12/22 06:14:22;;;;;;;27.52;15.13;;;;;;;-2.44;78.33;102078.23;1728980;81;21434;-48
2020/12/22 06:16:51;;;;;;;27.73;13.03;;;;;;;-2.43;78.77;102070.89;1712792;81;21017;-49
2020/12/22 06:19:19;;;;;;;24.57;13.75;;;;;;;-2.41;79.12;102062.68;1712544;81;21171;-48
2020/12/22 06:21:48;;;;;;;21.25;12.15;;;;;;;-2.40;79.25;102070.89;1716150;81;21124;-48
2020/12/22 06:24:17;;;;;;;22.40;12.43;;;;;;;-2.35;79.19;102069.16;1694515;81;21116;-48
2020/12/22 06:26:48;;;;;;;20.37;10.53;;;;;;;-2.32;79.15;102070.45;1724832;81;22382;-48
2020/12/22 06:29:27;;;;;;;19.55;11.03;;;;;;;-2.29;79.18;102069.16;1666194;83;21187;-48
2020/12/22 06:31:55;;;;;;;23.30;11.18;;;;;;;-2.26;79.12;102065.67;1722268;81;21179;-48
2020/12/22 06:34:26;;;;;;;18.87;9.68;;;;;;;-2.28;79.00;102062.22;1727015;81;21194;-49
2020/12/22 06:36:59;;;;;;;18.02;9.73;;;;;;;-2.27;79.08;102060.05;1741488;80;21100;-47
2020/12/22 06:39:50;;;;;;;19.60;10.35;;;;;;;-2.27;79.02;102062.23;1735978;81;21386;-48
2020/12/22 06:42:47;;;;;;;15.30;8.63;;;;;;;-2.22;79.29;102064.80;1722598;80;20985;-48
2020/12/22 06:45:29;;;;;;;16.55;9.48;;;;;;;-2.21;79.07;102065.23;1734178;80;22068;-48
2020/12/22 06:48:00;;;;;;;17.23;8.90;;;;;;;-2.25;79.44;102058.33;1737041;81;21127;-48
2020/12/22 06:50:43;;;;;;;19.80;9.85;;;;;;;-2.25;79.56;102057.03;1717765;81;21133;-48
2020/12/22 06:53:34;;;;;;;15.68;8.38;;;;;;;-2.24;79.57;102047.08;1756114;80;21395;-47
2020/12/22 06:56:04;;;;;;;19.20;9.55;;;;;;;-2.19;79.87;102054.88;1747739;80;21902;-48
2020/12/22 06:58:41;;;;;;;16.52;9.00;;;;;;;-2.16;79.27;102050.97;1779157;80;21141;-48
2020/12/22 07:01:29;;;;;;;17.42;8.75;;;;;;;-2.25;79.05;102046.65;1764044;80;21132;-48
2020/12/22 07:04:21;;;;;;;19.62;9.50;;;;;;;-2.27;79.09;102053.57;1748054;81;21109;-48
2020/12/22 07:06:56;;;;;;;16.12;9.60;;;;;;;-2.29;79.14;102053.59;1748244;81;21196;-48
2020/12/22 07:09:31;;;;;;;19.50;10.10;;;;;;;-2.28;79.44;102047.53;1748092;81;21120;-48
2020/12/22 07:12:11;;;;;;;28.32;10.75;;;;;;;-2.23;79.87;102041.02;1748227;81;20997;-48
2020/12/22 07:14:46;;;;;;;20.88;10.63;;;;;;;-2.21;79.46;102044.48;1748262;81;21124;-48
2020/12/22 07:17:20;;;;;;;17.70;10.10;;;;;;;-2.25;79.36;102042.34;1748141;81;21132;-48
2020/12/22 07:19:51;;;;;;;21.37;11.40;;;;;;;-2.28;79.44;102037.58;1748228;81;21206;-47
2020/12/22 07:22:23;;;;;;;28.02;13.22;;;;;;;-2.30;79.92;102031.53;1744219;81;21144;-48
2020/12/22 07:24:51;;;;;;;19.25;11.38;;;;;;;-2.26;80.48;102028.94;1748301;81;21914;-48
2020/12/22 07:27:19;;;;;;;25.70;12.65;;;;;;;-2.21;80.53;102028.06;1733774;80;20974;-47
2020/12/22 07:29:47;;;;;;;21.37;12.40;;;;;;;-2.19;80.19;102026.34;1712259;80;21129;-47
2020/12/22 07:32:15;;;;;;;25.15;11.68;;;;;;;-2.16;80.23;102028.47;1749459;80;21515;-47
2020/12/22 07:34:44;;;;;;;23.47;12.00;;;;;;;-2.11;80.08;102024.55;1670950;83;21488;-47
2020/12/22 07:37:12;;;;;;;22.70;12.30;;;;;;;-2.12;79.91;102021.11;1717802;83;21008;-48
2020/12/22 07:39:40;;;;;;;22.17;10.90;;;;;;;-2.10;80.21;102019.80;1718090;83;21950;-47
2020/12/22 07:42:14;;;;;;;23.67;13.10;;;;;;;-2.08;79.98;102020.23;1724715;81;21105;-47
2020/12/22 07:44:42;;;;;;;26.85;13.80;;;;;;;-2.08;79.97;102016.77;1735806;81;21201;-48
2020/12/22 07:47:10;;;;;;;28.83;15.13;;;;;;;-2.04;80.16;102015.89;1747962;81;22106;-48
2020/12/22 07:49:40;;;;;;;28.30;15.10;;;;;;;-2.02;80.05;102010.70;1753892;81;21610;-48
2020/12/22 07:52:16;;;;;;;;;;;;;;;-2.02;79.95;102011.55;1752029;80;21841;-47
2020/12/22 07:54:58;;;;;;;31.42;14.98;;;;;;;-2.01;79.69;102009.39;1739961;80;20278;-48
2020/12/22 07:57:26;;;;;;;24.65;12.50;;;;;;;-2.03;80.17;102016.31;1731998;81;21208;-48
2020/12/22 08:00:08;;;;;;;21.02;11.08;;;;;;;-2.04;79.63;102009.84;1753510;80;21156;-48
2020/12/22 08:02:36;;;;;;;20.70;10.30;;;;;;;-2.10;79.63;102017.20;1746062;80;21768;-48
2020/12/22 08:05:10;;;;;;;25.27;12.85;;;;;;;-2.10;80.09;102015.91;1747838;81;21109;-48
2020/12/22 08:07:39;;;;;;;22.75;12.03;;;;;;;-2.11;79.57;102019.36;1747803;81;21125;-48
2020/12/22 08:10:13;;;;;;;23.02;12.55;;;;;;;-2.13;79.78;102011.60;1748145;81;21169;-48
2020/12/22 08:12:42;;;;;;;21.55;11.70;;;;;;;-2.09;79.85;102010.73;1748347;81;21542;-48
2020/12/22 08:15:12;;;;;;;;;;;;;;;-2.04;79.64;102007.25;1751007;81;21156;-48
2020/12/22 08:17:42;;;;;;;24.57;12.00;;;;;;;-2.00;79.71;102009.81;1722312;81;20276;-47
2020/12/22 08:20:11;;;;;;;27.37;15.53;;;;;;;-1.99;79.36;102007.66;1748383;81;21136;-48
2020/12/22 08:22:42;;;;;;;23.00;12.45;;;;;;;-1.98;79.45;101996.86;1687893;81;21371;-48
2020/12/22 08:25:10;;;;;;;19.37;10.72;;;;;;;-1.96;79.42;101998.56;1747426;81;21165;-47
2020/12/22 08:27:37;;;;;;;18.20;10.10;;;;;;;-1.96;79.19;101987.33;1747977;81;22167;-48
2020/12/22 08:30:22;;;;;;;19.95;11.40;;;;;;;-1.94;79.19;101985.59;1737101;81;21905;-48
2020/12/22 08:32:49;;;;;;;23.45;11.28;;;;;;;-1.91;79.26;101981.69;1736192;80;21156;-47
2020/12/22 08:35:24;;;;;;;19.30;10.75;;;;;;;-1.87;79.05;101976.03;1744782;80;21392;-47
2020/12/22 08:37:52;;;;;;;20.82;11.60;;;;;;;-1.81;79.47;101981.20;1727058;80;21121;-47
2020/12/22 08:40:27;;;;;;;18.82;11.05;;;;;;;-1.74;79.55;101982.90;1718134;80;21128;-48
2020/12/22 08:42:57;;;;;;;24.60;13.72;;;;;;;-1.66;79.20;101973.79;1726735;80;21113;-48
2020/12/22 08:45:27;;;;;;;24.12;12.47;;;;;;;-1.65;78.98;101969.88;1726519;80;21152;-48
2020/12/22 08:47:54;;;;;;;24.37;13.05;;;;;;;-1.64;79.01;101967.70;1735337;82;21380;-47
2020/12/22 08:50:22;;;;;;;28.17;13.72;;;;;;;-1.65;78.41;101972.47;1729141;80;21143;-47
2020/12/22 08:52:50;;;;;;;29.42;15.85;;;;;;;-1.68;78.40;101963.84;1736517;80;21120;-47
2020/12/22 08:55:18;;;;;;;30.05;15.40;;;;;;;-1.67;78.68;101957.33;1734521;80;22076;-48
2020/12/22 08:57:46;;;;;;;33.10;17.73;;;;;;;-1.64;78.59;101948.68;1724691;81;21196;-48
2020/12/22 09:00:15;;;;;;;33.05;19.05;;;;;;;-1.59;78.71;101959.02;1741006;80;21213;-48
2020/12/22 09:02:51;;;;;;;28.62;14.45;;;;;;;-1.56;78.33;101953.36;1724806;81;21970;-48
2020/12/22 09:05:23;;;;;;;25.55;13.68;;;;;;;-1.57;78.22;101945.59;1728893;81;21116;-47
2020/12/22 09:08:00;;;;;;;23.02;12.50;;;;;;;-1.54;78.58;101949.02;1736537;81;21144;-48
2020/12/22 09:10:28;;;;;;;24.25;12.55;;;;;;;-1.49;78.26;101943.36;1738879;80;21088;-48
2020/12/22 09:12:56;;;;;;;26.12;13.38;;;;;;;-1.50;78.15;101940.79;1754223;80;21367;-48
2020/12/22 09:15:24;;;;;;;25.00;14.58;;;;;;;-1.49;78.22;101938.63;1755856;80;21788;-48
2020/12/22 09:17:51;;;;;;;26.77;13.83;;;;;;;-1.45;78.20;101944.64;1747508;80;21141;-48
2020/12/22 09:20:21;;;;;;;27.55;14.33;;;;;;;-1.41;78.43;101944.63;1751914;80;21692;-48
2020/12/22 09:22:48;;;;;;;27.30;15.03;;;;;;;-1.41;78.07;101942.03;1747789;81;22099;-47
2020/12/22 09:25:16;;;;;;;24.23;13.40;;;;;;;-1.44;78.21;101934.26;1745135;81;21514;-48
2020/12/22 09:27:44;;;;;;;28.60;13.88;;;;;;;-1.48;78.32;101924.77;1735295;80;21267;-47
2020/12/22 09:30:13;;;;;;;24.45;13.05;;;;;;;-1.48;78.45;101929.95;1717691;82;22007;-47
2020/12/22 09:32:43;;;;;;;28.27;14.98;;;;;;;-1.45;78.41;101934.25;1717873;83;22076;-47
2020/12/22 09:35:11;;;;;;;30.43;15.70;;;;;;;-1.47;78.42;101931.68;1718129;83;21920;-47
2020/12/22 09:37:39;;;;;;;28.67;14.25;;;;;;;-1.44;78.60;101934.26;1749471;80;21368;-47
2020/12/22 09:40:07;;;;;;;30.45;15.70;;;;;;;-1.37;78.94;101926.84;1774836;80;21015;-47
2020/12/22 09:42:34;;;;;;;30.97;15.45;;;;;;;-1.29;78.97;101921.58;1779144;80;21137;-47
2020/12/22 09:45:01;;;;;;;26.48;15.25;;;;;;;-1.23;78.90;101912.89;1779204;80;21122;-47
2020/12/22 09:47:29;;;;;;;26.45;14.28;;;;;;;-1.16;78.65;101910.67;1779187;80;21145;-47
2020/12/22 09:49:56;;;;;;;24.60;14.43;;;;;;;-1.16;78.23;101914.56;1779210;80;21987;-47
2020/12/22 09:52:24;;;;;;;23.55;13.18;;;;;;;-1.21;78.02;101901.59;1778140;80;21141;-48
2020/12/22 09:54:52;;;;;;;26.12;13.43;;;;;;;-1.24;78.03;101902.92;1779365;80;21633;-47
2020/12/22 09:57:19;;;;;;;25.08;14.38;;;;;;;-1.23;78.37;101905.09;1779242;80;22083;-48
2020/12/22 09:59:49;;;;;;;27.07;13.58;;;;;;;-1.22;78.31;101905.52;1779335;80;21200;-48
2020/12/22 10:02:18;;;;;;;23.67;12.23;;;;;;;-1.20;78.37;101895.98;1748051;80;21101;-48
2020/12/22 10:04:47;;;;;;;22.90;13.30;;;;;;;-1.15;78.39;101895.50;1748379;81;21238;-48
2020/12/22 10:07:14;;;;;;;29.10;15.05;;;;;;;-1.15;78.43;101892.02;1747986;81;21117;-48
2020/12/22 10:09:42;;;;;;;22.77;12.07;;;;;;;-1.14;78.63;101886.83;1748181;81;21620;-47
2020/12/22 10:12:10;;;;;;;25.08;14.43;;;;;;;-1.13;78.38;101888.55;1747991;81;21151;-47
2020/12/22 10:14:37;;;;;;;26.77;14.15;;;;;;;-1.14;78.20;101882.94;1748134;81;21577;-47
2020/12/22 10:17:06;;;;;;;24.98;14.50;;;;;;;-1.19;78.20;101876.47;1748002;81;20986;-47
2020/12/22 10:19:34;;;;;;;26.90;14.38;;;;;;;-1.23;78.46;101874.77;1748103;81;21115;-48
2020/12/22 10:22:02;;;;;;;32.55;15.55;;;;;;;-1.22;78.75;101871.75;1748172;81;21596;-48
2020/12/22 10:24:31;;;;;;;28.32;14.55;;;;;;;-1.20;78.69;101864.80;1747321;81;21859;-47
2020/12/22 10:26:58;;;;;;;30.30;17.07;;;;;;;-1.21;78.70;101861.33;1748164;81;21588;-47
2020/12/22 10:29:26;;;;;;;29.52;16.55;;;;;;;-1.22;78.79;101854.86;1747832;81;21112;-48
2020/12/22 10:31:55;;;;;;;31.10;16.52;;;;;;;-1.20;78.95;101854.41;1747873;81;21144;-47
2020/12/22 10:34:23;;;;;;;29.72;16.12;;;;;;;-1.15;78.98;101853.92;1748024;81;21373;-47
2020/12/22 10:36:53;;;;;;;32.23;16.75;;;;;;;-1.13;78.62;101849.58;1747867;81;21144;-47
2020/12/22 10:39:20;;;;;;;35.92;18.73;;;;;;;-1.20;78.41;101838.81;1748032;81;21374;-47
2020/12/22 10:41:48;;;;;;;36.35;18.07;;;;;;;-1.24;78.63;101840.56;1747108;81;22140;-47
2020/12/22 10:44:16;;;;;;;40.10;18.67;;;;;;;-1.23;78.95;101841.44;1747641;81;21124;-47
2020/12/22 10:46:47;;;;;;;42.00;19.67;;;;;;;-1.22;78.92;101834.08;1748062;81;22072;-48
2020/12/22 10:49:15;;;;;;;35.28;19.15;;;;;;;-1.19;79.08;101827.55;1748011;80;21639;-47
2020/12/22 10:51:43;;;;;;;43.30;22.02;;;;;;;-1.14;79.05;101830.97;1747899;80;21186;-47
2020/12/22 10:54:11;;;;;;;44.50;21.30;;;;;;;-1.13;78.96;101822.30;1747968;81;21120;-48
2020/12/22 10:56:43;;;;;;;39.83;19.90;;;;;;;-1.09;79.21;101815.31;1746586;80;21116;-48
2020/12/22 10:59:10;;;;;;;37.75;20.90;;;;;;;-1.06;79.05;101810.92;1741192;81;21100;-48
2020/12/22 11:01:39;;;;;;;41.53;21.70;;;;;;;-1.05;79.13;101811.80;1747094;80;21127;-48
2020/12/22 11:04:07;;;;;;;37.67;20.85;;;;;;;-0.99;79.21;101805.66;1724559;82;21136;-47
2020/12/22 11:06:45;;;;;;;44.20;22.62;;;;;;;-0.96;79.12;101801.73;1724573;82;21148;-48
2020/12/22 11:09:04;;;;;;;42.67;21.57;;;;;;;-0.95;79.21;101805.63;1719275;81;21121;-48
2020/12/22 11:11:32;;;;;;;43.23;19.95;;;;;;;-0.93;79.13;101806.89;1734902;81;21177;-48
2020/12/22 11:13:59;;;;;;;51.45;24.20;;;;;;;-0.97;78.88;101803.91;1724289;81;21154;-48
2020/12/22 11:16:27;;;;;;;49.70;24.72;;;;;;;-1.01;78.79;101807.42;1733187;82;21398;-48
2020/12/22 11:18:56;;;;;;;56.70;25.95;;;;;;;-1.04;79.01;101808.33;1735563;81;21942;-48